Time;durP1;ratioP1;P1;durP2;ratioP2;P2;SDS_P1;SDS_P2;PMS_P1;PMS_P2;Temp;Humidity;BMP_temperature;BMP_pressure;BME280_temperature;BME280_humidity;BME280_pressure;Samples;Min_cycle;Max_cycle;Signal;HPM_P1;HPM_P2
2021/12/11 00:01:10;;;;;;;60.05;20.73;;;-1.60;99.90;;;;;;5038679;28;19921;-80
2021/12/11 00:03:42;;;;;;;67.75;21.67;;;-1.60;99.90;;;;;;5038720;28;20488;-80
2021/12/11 00:06:22;;;;;;;66.10;24.17;;;-1.60;99.90;;;;;;5054289;28;20391;-80
2021/12/11 00:08:51;;;;;;;61.72;21.42;;;-1.60;99.90;;;;;;5055829;28;20449;-80
2021/12/11 00:11:26;;;;;;;67.68;23.08;;;-1.60;99.90;;;;;;5054354;28;20059;-80
2021/12/11 00:13:58;;;;;;;63.08;23.75;;;-1.60;99.90;;;;;;5054177;28;20071;-82
2021/12/11 00:16:28;;;;;;;69.22;24.58;;;-1.50;99.90;;;;;;5055161;28;20045;-82
2021/12/11 00:18:57;;;;;;;73.60;25.33;;;-1.60;99.90;;;;;;5037824;28;20477;-81
2021/12/11 00:21:25;;;;;;;76.25;25.98;;;-1.60;99.90;;;;;;5055404;28;20051;-82
2021/12/11 00:24:01;;;;;;;73.97;23.45;;;-1.60;99.90;;;;;;5055319;28;20116;-81
2021/12/11 00:26:42;;;;;;;65.15;22.92;;;-1.60;99.90;;;;;;5055220;28;20051;-80
2021/12/11 00:29:10;;;;;;;71.65;24.88;;;-1.70;99.90;;;;;;5054806;28;20484;-80
2021/12/11 00:31:41;;;;;;;66.70;24.90;;;-1.70;99.90;;;;;;5020993;28;20052;-80
2021/12/11 00:34:13;;;;;;;72.53;25.67;;;-1.70;99.90;;;;;;5037350;28;20136;-80
2021/12/11 00:36:39;;;;;;;65.25;25.10;;;-1.70;99.90;;;;;;5038038;28;20130;-80
2021/12/11 00:39:12;;;;;;;73.07;25.38;;;-1.70;99.90;;;;;;5037377;28;20053;-81
2021/12/11 00:41:40;;;;;;;69.10;24.52;;;-1.70;99.90;;;;;;5054026;28;20048;-80
2021/12/11 00:44:06;;;;;;;69.30;24.23;;;-1.80;99.90;;;;;;5053801;28;20130;-81
2021/12/11 00:46:33;;;;;;;71.22;25.35;;;-1.70;99.90;;;;;;5053568;28;20053;-79
2021/12/11 00:49:10;;;;;;;70.50;25.05;;;-1.70;99.90;;;;;;5037271;28;20128;-80
2021/12/11 00:51:36;;;;;;;60.38;24.05;;;-1.70;99.90;;;;;;5053592;28;20049;-80
2021/12/11 00:54:02;;;;;;;69.30;21.60;;;-1.70;99.90;;;;;;5036927;28;20060;-80
2021/12/11 00:56:32;;;;;;;63.67;22.87;;;-1.70;99.90;;;;;;5053706;28;20045;-79
2021/12/11 00:59:01;;;;;;;62.92;23.58;;;-1.70;99.90;;;;;;5053301;28;20068;-80
2021/12/11 01:01:30;;;;;;;67.00;21.80;;;-1.80;99.90;;;;;;5053488;28;20132;-80
2021/12/11 01:04:00;;;;;;;67.15;22.45;;;-1.80;99.90;;;;;;5053226;28;20048;-81
2021/12/11 01:06:52;;;;;;;60.63;22.40;;;-1.80;99.90;;;;;;5036534;28;20041;-80
2021/12/11 01:09:26;;;;;;;64.25;21.92;;;-1.90;99.90;;;;;;5053456;28;20045;-81
2021/12/11 01:12:01;;;;;;;61.45;23.00;;;-1.90;99.90;;;;;;5037396;28;20048;-80
2021/12/11 01:14:38;;;;;;;63.40;22.05;;;-1.80;99.90;;;;;;5052867;28;20049;-80
2021/12/11 01:17:46;;;;;;;67.20;23.87;;;-1.90;99.90;;;;;;5054785;28;20049;-80
2021/12/11 01:20:18;;;;;;;63.47;21.55;;;-1.90;99.90;;;;;;5042914;28;20299;-80
2021/12/11 01:22:44;;;;;;;63.38;22.40;;;-1.80;99.90;;;;;;5037050;28;20231;-80
2021/12/11 01:25:10;;;;;;;57.83;21.73;;;-1.80;99.90;;;;;;5052770;28;20210;-80
2021/12/11 01:27:39;;;;;;;62.60;21.75;;;-1.90;99.90;;;;;;5053045;28;20053;-80
2021/12/11 01:30:08;;;;;;;55.80;20.98;;;-1.80;99.90;;;;;;5054248;28;20133;-81
2021/12/11 01:32:35;;;;;;;58.47;20.38;;;-1.80;99.90;;;;;;5054020;28;20045;-80
2021/12/11 01:35:03;;;;;;;64.85;21.90;;;-1.80;99.90;;;;;;5053401;28;20453;-80
2021/12/11 01:37:29;;;;;;;65.47;24.67;;;-1.80;99.90;;;;;;5052996;28;20048;-80
2021/12/11 01:39:55;;;;;;;65.30;23.20;;;-1.80;99.90;;;;;;5036144;28;20056;-80
2021/12/11 01:42:28;;;;;;;69.40;23.00;;;-1.80;99.90;;;;;;5036103;28;20053;-80
2021/12/11 01:44:57;;;;;;;58.72;21.50;;;-1.80;99.90;;;;;;5036114;28;20097;-81
2021/12/11 01:47:32;;;;;;;65.18;21.92;;;-1.90;99.90;;;;;;5036225;28;20496;-80
2021/12/11 01:50:07;;;;;;;61.80;21.92;;;-1.90;99.90;;;;;;5036505;28;20076;-81
2021/12/11 01:52:41;;;;;;;63.28;23.38;;;-1.90;99.90;;;;;;5053930;28;20049;-80
2021/12/11 01:55:39;;;;;;;68.13;22.98;;;-1.90;99.90;;;;;;5053793;28;20052;-81
2021/12/11 01:58:09;;;;;;;70.43;24.02;;;-1.90;99.90;;;;;;5052434;28;20416;-81
2021/12/11 02:00:38;;;;;;;68.85;22.92;;;-2.00;99.90;;;;;;5052516;28;20052;-81
2021/12/11 02:03:09;;;;;;;58.55;21.00;;;-1.90;99.90;;;;;;5036558;28;20361;-83
2021/12/11 02:05:38;;;;;;;64.90;20.67;;;-2.00;99.90;;;;;;5052190;28;20037;-82
2021/12/11 02:08:12;;;;;;;57.45;20.02;;;-2.00;99.90;;;;;;5053524;28;20350;-81
2021/12/11 02:10:44;;;;;;;55.05;20.15;;;-2.10;99.90;;;;;;5036306;28;20378;-80
2021/12/11 02:13:20;;;;;;;57.00;19.70;;;-2.10;99.90;;;;;;5052176;28;20058;-82
2021/12/11 02:15:50;;;;;;;58.10;19.90;;;-2.00;99.90;;;;;;5052251;28;20124;-82
2021/12/11 02:18:36;;;;;;;61.85;20.20;;;-2.10;99.90;;;;;;5052095;28;20154;-80
2021/12/11 02:21:17;;;;;;;60.30;19.63;;;-2.10;99.90;;;;;;5052748;28;20388;-80
2021/12/11 02:23:43;;;;;;;52.28;19.30;;;-2.10;99.90;;;;;;5052899;28;20049;-80
2021/12/11 02:26:14;;;;;;;52.15;18.83;;;-2.20;99.90;;;;;;5051610;28;20049;-81
2021/12/11 02:28:48;;;;;;;55.08;19.48;;;-2.30;99.90;;;;;;5035978;28;20114;-80
2021/12/11 02:31:28;;;;;;;59.75;20.60;;;-2.30;99.90;;;;;;5035716;28;20067;-80
2021/12/11 02:34:10;;;;;;;55.67;20.08;;;-2.30;99.90;;;;;;5052566;28;20041;-80
2021/12/11 02:37:07;;;;;;;52.50;19.63;;;-2.30;99.90;;;;;;5052653;28;20420;-80
2021/12/11 02:39:51;;;;;;;53.85;19.52;;;-2.30;99.90;;;;;;5051892;28;20037;-79
2021/12/11 02:42:23;;;;;;;58.22;20.40;;;-2.40;99.90;;;;;;5052005;28;20079;-80
2021/12/11 02:44:59;;;;;;;59.22;19.80;;;-2.40;99.90;;;;;;5035770;28;20136;-80
2021/12/11 02:47:32;;;;;;;49.97;18.92;;;-2.40;99.90;;;;;;5051891;28;20048;-80
2021/12/11 02:50:00;;;;;;;62.17;20.67;;;-2.50;99.90;;;;;;5052109;28;20057;-81
2021/12/11 02:52:45;;;;;;;59.08;20.98;;;-2.50;99.90;;;;;;5051728;28;20456;-81
2021/12/11 02:55:20;;;;;;;59.83;21.17;;;-2.50;99.90;;;;;;5051568;28;20049;-82
2021/12/11 02:57:50;;;;;;;62.20;21.90;;;-2.50;99.90;;;;;;5051281;28;20493;-81
2021/12/11 03:00:41;;;;;;;60.35;21.48;;;-2.60;99.90;;;;;;5033976;28;20136;-81
2021/12/11 03:03:10;;;;;;;55.30;20.88;;;-2.50;99.90;;;;;;5044448;28;20069;-82
2021/12/11 03:05:47;;;;;;;62.92;20.80;;;-2.50;99.90;;;;;;5052279;28;20048;-81
2021/12/11 03:08:15;;;;;;;;;;;-2.60;99.90;;;;;;5052135;28;20106;-82
2021/12/11 03:10:44;;;;;;;59.00;20.63;;;-2.60;99.90;;;;;;5052105;28;20288;-82
2021/12/11 03:13:11;;;;;;;61.28;20.35;;;-2.60;99.90;;;;;;5034919;28;20056;-82
2021/12/11 03:15:36;;;;;;;59.33;20.20;;;-2.60;99.90;;;;;;5051236;28;20049;-81
2021/12/11 03:18:04;;;;;;;59.85;21.88;;;-2.60;99.90;;;;;;5035479;28;20048;-82
2021/12/11 03:20:32;;;;;;;65.80;21.98;;;-2.50;99.90;;;;;;5051405;28;20106;-82
2021/12/11 03:22:59;;;;;;;59.25;22.45;;;-2.40;99.90;;;;;;5052253;28;20048;-81
2021/12/11 03:25:28;;;;;;;72.07;24.45;;;-2.50;99.90;;;;;;5051395;28;20375;-80
2021/12/11 03:27:54;;;;;;;59.63;22.23;;;-2.50;99.90;;;;;;5051431;28;20144;-81
2021/12/11 03:30:35;;;;;;;61.37;21.63;;;-2.50;99.90;;;;;;5052319;28;20114;-80
2021/12/11 03:33:07;;;;;;;59.88;20.48;;;-2.50;99.90;;;;;;5053180;28;20364;-80
2021/12/11 03:35:33;;;;;;;55.53;19.33;;;-2.60;99.90;;;;;;5052356;28;20438;-80
2021/12/11 03:38:00;;;;;;;55.15;18.77;;;-2.60;99.90;;;;;;5051766;28;20397;-80
2021/12/11 03:40:26;;;;;;;52.80;18.42;;;-2.60;99.90;;;;;;5034598;28;20406;-79
2021/12/11 03:42:53;;;;;;;59.70;20.77;;;-2.60;99.90;;;;;;5051611;28;20124;-79
2021/12/11 03:45:21;;;;;;;;;;;-2.60;99.90;;;;;;5051223;28;20056;-79
2021/12/11 03:47:55;;;;;;;54.08;18.02;;;-2.60;99.90;;;;;;5051252;28;19928;-79
2021/12/11 03:50:22;;;;;;;54.30;19.55;;;-2.70;99.90;;;;;;5052856;28;20128;-81
2021/12/11 03:52:49;;;;;;;;;;;-2.70;99.90;;;;;;5052431;28;20095;-78
2021/12/11 03:55:23;;;;;;;51.13;16.40;;;-2.70;99.90;;;;;;5034004;28;19921;-79
2021/12/11 03:57:48;;;;;;;53.60;17.27;;;-2.70;99.90;;;;;;5034816;28;20041;-79
2021/12/11 04:00:20;;;;;;;48.92;17.48;;;-2.60;99.90;;;;;;5051920;28;20056;-79
2021/12/11 04:02:47;;;;;;;63.83;19.10;;;-2.60;99.90;;;;;;5051601;28;20045;-79
2021/12/11 04:05:13;;;;;;;52.38;19.77;;;-2.60;99.90;;;;;;5050613;28;20049;-79
2021/12/11 04:07:43;;;;;;;62.72;20.10;;;-2.70;99.90;;;;;;5034139;28;20071;-79
2021/12/11 04:10:12;;;;;;;59.10;18.77;;;-2.70;99.90;;;;;;5052917;28;20048;-79
2021/12/11 04:12:39;;;;;;;54.33;18.20;;;-2.70;99.90;;;;;;5055124;28;20049;-79
2021/12/11 04:15:06;;;;;;;52.70;18.73;;;-2.70;99.90;;;;;;5021106;28;20405;-78
2021/12/11 04:17:32;;;;;;;56.55;18.73;;;-2.70;99.90;;;;;;5055206;28;20053;-80
2021/12/11 04:20:01;;;;;;;56.85;19.50;;;-2.80;99.90;;;;;;5054435;28;20417;-80
2021/12/11 04:22:27;;;;;;;54.60;19.35;;;-2.70;99.90;;;;;;5038229;28;20473;-80
2021/12/11 04:24:54;;;;;;;62.00;19.55;;;-2.70;99.90;;;;;;5054135;28;20040;-80
2021/12/11 04:27:21;;;;;;;52.40;19.10;;;-2.70;99.90;;;;;;5054860;28;20459;-80
2021/12/11 04:29:50;;;;;;;57.20;19.17;;;-2.70;99.90;;;;;;5055380;28;20049;-80
2021/12/11 04:32:17;;;;;;;54.55;18.85;;;-2.70;99.90;;;;;;5054156;28;20048;-80
2021/12/11 04:34:43;;;;;;;58.20;19.67;;;-2.70;99.90;;;;;;5053921;28;20053;-80
2021/12/11 04:37:16;;;;;;;58.42;19.13;;;-2.70;99.90;;;;;;5055387;28;20052;-80
2021/12/11 04:39:45;;;;;;;52.72;19.55;;;-2.70;99.90;;;;;;5037642;28;20049;-79
2021/12/11 04:43:04;;;;;;;54.42;18.27;;;-2.80;99.90;;;;;;5054061;28;20049;-79
2021/12/11 04:45:01;;;;;;;55.78;18.20;;;-2.80;99.90;;;;;;5032467;28;20049;-79
2021/12/11 04:47:36;;;;;;;54.67;19.10;;;-2.70;99.90;;;;;;5054987;28;20081;-79
2021/12/11 04:50:14;;;;;;;54.78;18.65;;;-2.80;99.90;;;;;;5054109;28;20048;-81
2021/12/11 04:52:54;;;;;;;55.35;18.40;;;-2.80;99.90;;;;;;5054256;28;20053;-79
2021/12/11 04:55:47;;;;;;;53.83;18.05;;;-2.80;99.90;;;;;;5053505;28;20163;-79
2021/12/11 05:11:21;;;;;;;54.22;18.40;;;-2.80;99.90;;;;;;5053283;28;20049;-79
2021/12/11 05:13:47;;;;;;;60.65;18.48;;;-2.90;99.90;;;;;;5037480;28;20052;-79
2021/12/11 05:16:15;;;;;;;53.55;19.25;;;-2.90;99.90;;;;;;5036812;28;20102;-79
2021/12/11 05:18:46;;;;;;;50.70;18.13;;;-2.80;99.90;;;;;;5037206;28;20116;-79
2021/12/11 05:21:16;;;;;;;61.55;19.25;;;-2.90;99.90;;;;;;5036305;28;20500;-79
2021/12/11 05:23:42;;;;;;;52.97;18.45;;;-2.90;99.90;;;;;;5053847;28;20048;-79
2021/12/11 05:26:07;;;;;;;53.22;18.45;;;-2.90;99.90;;;;;;5053042;28;20079;-79
2021/12/11 05:28:34;;;;;;;57.45;18.83;;;-2.90;99.90;;;;;;5019963;28;20045;-80
2021/12/11 05:31:03;;;;;;;61.88;19.73;;;-2.90;99.90;;;;;;5036505;28;20084;-79
2021/12/11 05:33:29;;;;;;;61.97;19.60;;;-2.90;99.90;;;;;;5052900;28;20087;-79
2021/12/11 05:35:56;;;;;;;69.00;21.35;;;-2.80;99.90;;;;;;5053827;28;20041;-79
2021/12/11 05:38:24;;;;;;;67.95;20.88;;;-2.80;99.90;;;;;;5052899;28;20044;-79
2021/12/11 05:40:59;;;;;;;51.78;19.95;;;-2.90;99.90;;;;;;5019527;28;20152;-80
2021/12/11 05:43:29;;;;;;;60.78;19.30;;;-2.80;99.90;;;;;;5053791;28;20041;-80
2021/12/11 05:45:55;;;;;;;59.22;19.45;;;-2.90;99.90;;;;;;5054011;28;20442;-80
2021/12/11 05:48:21;;;;;;;58.75;19.55;;;-2.80;99.90;;;;;;5036475;28;20068;-80
2021/12/11 05:50:52;;;;;;;60.65;20.00;;;-2.80;99.90;;;;;;5052931;28;20052;-80
2021/12/11 05:53:20;;;;;;;63.25;20.67;;;-2.80;99.90;;;;;;5052517;28;20501;-80
2021/12/11 05:55:49;;;;;;;59.88;19.10;;;-2.80;99.90;;;;;;5052303;28;20106;-80
2021/12/11 05:58:24;;;;;;;54.63;18.85;;;-2.80;99.90;;;;;;5052154;28;20127;-80
2021/12/11 06:00:53;;;;;;;61.13;19.30;;;-2.70;99.90;;;;;;5053331;28;20056;-80
2021/12/11 06:03:19;;;;;;;62.00;20.17;;;-2.70;99.90;;;;;;5035974;28;20049;-80
2021/12/11 06:05:46;;;;;;;56.72;19.10;;;-2.70;99.90;;;;;;5053420;28;20063;-80
2021/12/11 06:08:12;;;;;;;55.08;19.80;;;-2.70;99.90;;;;;;5052796;28;20488;-80
2021/12/11 06:10:40;;;;;;;65.00;21.08;;;-2.70;99.90;;;;;;5053356;28;20055;-80
2021/12/11 06:13:06;;;;;;;64.75;21.75;;;-2.70;99.90;;;;;;5052899;28;20478;-79
2021/12/11 06:15:33;;;;;;;64.40;21.35;;;-2.70;99.90;;;;;;5053226;28;20045;-79
2021/12/11 06:17:59;;;;;;;66.00;21.25;;;-2.70;99.90;;;;;;5035880;28;20118;-79
2021/12/11 06:20:27;;;;;;;71.55;25.05;;;-2.70;99.90;;;;;;5035823;28;20408;-78
2021/12/11 06:22:53;;;;;;;117.57;35.45;;;-2.50;99.90;;;;;;5053184;28;20052;-79
2021/12/11 06:25:33;;;;;;;88.55;27.70;;;-1.90;99.90;;;;;;5035064;28;20047;-80
2021/12/11 06:28:00;;;;;;;73.18;25.35;;;-1.90;99.90;;;;;;5035248;28;20045;-80
2021/12/11 06:30:27;;;;;;;;;;;-2.00;99.90;;;;;;5052280;28;20075;-79
2021/12/11 06:32:55;;;;;;;85.38;26.42;;;-2.10;99.90;;;;;;5051846;28;19983;-80
2021/12/11 06:35:30;;;;;;;79.40;24.35;;;-2.00;99.90;;;;;;5051907;28;20461;-81
2021/12/11 06:37:56;;;;;;;75.45;24.67;;;-2.10;99.90;;;;;;5052092;28;20058;-79
2021/12/11 06:40:25;;;;;;;74.60;25.38;;;-2.20;99.90;;;;;;5052859;28;20052;-81
2021/12/11 06:42:51;;;;;;;84.05;25.63;;;-2.20;99.90;;;;;;5034841;28;20055;-80
2021/12/11 06:45:19;;;;;;;74.70;24.30;;;-2.20;99.90;;;;;;5035671;28;20045;-80
2021/12/11 06:47:45;;;;;;;78.78;25.17;;;-2.30;99.90;;;;;;5035328;28;20084;-79
2021/12/11 06:50:10;;;;;;;80.32;27.13;;;-2.30;99.90;;;;;;5051749;28;20464;-80
2021/12/11 06:52:36;;;;;;;72.80;25.38;;;-2.30;99.90;;;;;;5052912;28;20128;-79
2021/12/11 06:55:04;;;;;;;84.75;26.27;;;-2.40;99.90;;;;;;5052605;28;20047;-80
2021/12/11 06:57:30;;;;;;;70.93;23.73;;;-2.40;99.90;;;;;;5034966;28;20496;-79
2021/12/11 06:59:56;;;;;;;77.68;24.40;;;-2.40;99.90;;;;;;5051308;28;20057;-79
2021/12/11 07:02:22;;;;;;;77.07;24.38;;;-2.50;99.90;;;;;;5051393;28;20544;-80
2021/12/11 07:04:49;;;;;;;70.60;24.83;;;-2.40;99.90;;;;;;5034862;28;20053;-80
2021/12/11 07:07:21;;;;;;;71.93;24.35;;;-2.50;99.90;;;;;;5035099;28;20445;-80
2021/12/11 07:09:47;;;;;;;75.25;25.27;;;-2.60;99.90;;;;;;5034812;28;20084;-80
2021/12/11 07:12:14;;;;;;;71.05;24.63;;;-2.60;99.90;;;;;;5051397;28;20041;-80
2021/12/11 07:14:40;;;;;;;66.85;23.10;;;-2.60;99.90;;;;;;5051296;28;20057;-80
2021/12/11 07:17:06;;;;;;;62.90;22.73;;;-2.60;99.90;;;;;;5051388;28;20049;-80
2021/12/11 07:19:32;;;;;;;72.13;23.50;;;-2.60;99.90;;;;;;5052704;28;20048;-81
2021/12/11 07:21:58;;;;;;;80.53;24.20;;;-2.70;99.90;;;;;;5052497;28;20055;-79
2021/12/11 07:24:32;;;;;;;74.32;24.60;;;-2.70;99.90;;;;;;5035016;28;20489;-79
2021/12/11 07:27:00;;;;;;;72.03;24.70;;;-2.70;99.90;;;;;;5050748;28;20041;-80
2021/12/11 07:29:26;;;;;;;76.18;24.38;;;-2.80;99.90;;;;;;5052031;28;20119;-79
2021/12/11 07:31:53;;;;;;;73.75;24.48;;;-2.80;99.90;;;;;;5051966;28;20041;-79
2021/12/11 07:34:19;;;;;;;70.80;25.52;;;-2.80;99.90;;;;;;5051439;28;20049;-79
2021/12/11 07:36:46;;;;;;;75.75;25.80;;;-2.80;99.90;;;;;;5051322;28;20049;-80
2021/12/11 07:39:15;;;;;;;73.15;25.20;;;-2.80;99.90;;;;;;5052300;28;20048;-79
2021/12/11 07:41:42;;;;;;;66.78;23.52;;;-2.80;99.90;;;;;;5051745;28;20091;-79
2021/12/11 07:44:08;;;;;;;72.80;24.47;;;-2.80;99.90;;;;;;5034272;28;20049;-80
2021/12/11 07:46:34;;;;;;;66.20;23.42;;;-2.70;99.90;;;;;;5054203;28;20045;-79
2021/12/11 07:49:03;;;;;;;71.13;23.30;;;-2.80;99.90;;;;;;5055490;28;20060;-79
2021/12/11 07:51:30;;;;;;;69.57;23.15;;;-2.80;99.90;;;;;;5054817;28;20287;-79
2021/12/11 07:53:56;;;;;;;62.40;22.42;;;-2.80;99.90;;;;;;5038589;28;20123;-80
2021/12/11 07:56:22;;;;;;;84.55;22.50;;;-2.80;99.90;;;;;;5038216;28;20072;-80
2021/12/11 07:58:51;;;;;;;72.65;22.63;;;-2.80;99.90;;;;;;5037714;28;20558;-81
2021/12/11 08:01:20;;;;;;;60.15;21.90;;;-2.70;99.90;;;;;;5055094;28;20444;-80
2021/12/11 08:03:46;;;;;;;78.65;27.90;;;-2.70;99.90;;;;;;5054484;28;20444;-80
2021/12/11 08:06:13;;;;;;;67.53;25.00;;;-2.70;99.90;;;;;;5054597;28;20040;-80
2021/12/11 08:08:41;;;;;;;73.55;24.40;;;-2.70;99.90;;;;;;5054205;28;20045;-79
2021/12/11 08:11:13;;;;;;;73.18;23.83;;;-2.60;99.90;;;;;;5054428;28;20524;-80
2021/12/11 08:13:44;;;;;;;66.68;23.65;;;-2.60;99.90;;;;;;5055234;28;20154;-80
2021/12/11 08:16:12;;;;;;;75.05;24.08;;;-2.60;99.90;;;;;;5054938;28;20389;-80
2021/12/11 08:18:38;;;;;;;71.57;23.80;;;-2.50;99.90;;;;;;5054331;28;20056;-80
2021/12/11 08:21:05;;;;;;;66.60;23.63;;;-2.60;99.90;;;;;;5021605;28;20132;-80
2021/12/11 08:23:31;;;;;;;90.10;27.88;;;-2.60;99.90;;;;;;5055471;28;20055;-80
2021/12/11 08:25:58;;;;;;;78.65;27.40;;;-2.50;99.90;;;;;;5054102;28;20049;-80
2021/12/11 08:28:27;;;;;;;75.28;27.58;;;-2.50;99.90;;;;;;5038235;28;20060;-81
2021/12/11 08:30:55;;;;;;;83.60;29.33;;;-2.40;99.90;;;;;;5054980;28;20446;-81
2021/12/11 08:33:22;;;;;;;85.00;28.88;;;-2.40;99.90;;;;;;5054497;28;20401;-81
2021/12/11 08:35:48;;;;;;;80.50;26.02;;;-2.40;99.90;;;;;;5054627;28;20351;-81
2021/12/11 08:38:17;;;;;;;72.43;25.67;;;-2.40;99.90;;;;;;5055010;28;20477;-81
2021/12/11 08:40:47;;;;;;;69.63;24.27;;;-2.40;99.90;;;;;;5054250;28;20126;-80
2021/12/11 08:43:15;;;;;;;75.07;25.58;;;-2.30;99.90;;;;;;5054206;28;20049;-81
2021/12/11 08:45:49;;;;;;;73.18;24.83;;;-2.30;99.90;;;;;;5054722;28;20512;-80
2021/12/11 08:48:18;;;;;;;72.03;27.13;;;-2.30;99.90;;;;;;5038796;28;20049;-81
2021/12/11 08:50:48;;;;;;;75.18;27.13;;;-2.20;99.90;;;;;;5053893;28;20041;-82
2021/12/11 08:53:14;;;;;;;82.82;28.02;;;-2.10;99.90;;;;;;5053914;28;20055;-81
2021/12/11 08:55:43;;;;;;;85.22;30.63;;;-2.10;99.90;;;;;;5038099;28;20132;-81
2021/12/11 08:58:12;;;;;;;92.82;29.90;;;-2.00;99.90;;;;;;5052801;28;20084;-81
2021/12/11 09:00:50;;;;;;;88.18;29.05;;;-1.80;99.90;;;;;;5036964;28;20488;-82
2021/12/11 09:03:31;;;;;;;80.05;27.38;;;-1.80;99.90;;;;;;5037840;28;20066;-82
2021/12/11 09:06:11;;;;;;;92.03;31.05;;;-1.90;99.90;;;;;;5055439;28;20074;-82
2021/12/11 09:08:48;;;;;;;80.95;29.83;;;-1.80;99.90;;;;;;5053911;28;20132;-82
2021/12/11 09:11:31;;;;;;;89.45;32.63;;;-1.80;99.90;;;;;;5054589;28;20492;-81
2021/12/11 09:14:23;;;;;;;91.50;32.03;;;-1.80;99.90;;;;;;5054702;28;20059;-82
2021/12/11 09:16:55;;;;;;;90.57;33.03;;;-1.70;99.90;;;;;;5029367;28;20515;-83
2021/12/11 09:19:37;;;;;;;90.40;32.33;;;-1.60;99.90;;;;;;5054669;28;20493;-83
2021/12/11 09:22:18;;;;;;;92.80;32.22;;;-1.60;99.90;;;;;;5053635;28;20436;-84
2021/12/11 09:24:54;;;;;;;94.65;32.03;;;-1.50;99.90;;;;;;5037264;28;20094;-84
2021/12/11 09:27:29;;;;;;;96.97;32.72;;;-1.50;99.90;;;;;;5036630;28;20063;-84
2021/12/11 09:30:24;;;;;;;87.20;31.25;;;-1.40;99.90;;;;;;5054460;28;20053;-83
2021/12/11 09:33:07;;;;;;;89.65;31.20;;;-1.30;99.90;;;;;;5053519;28;20064;-83
2021/12/11 09:35:44;;;;;;;89.03;32.67;;;-1.20;99.90;;;;;;5053234;28;20048;-84
2021/12/11 09:38:13;;;;;;;;;;;-1.20;99.90;;;;;;5037245;28;20578;-84
2021/12/11 09:40:39;;;;;;;86.00;28.58;;;-1.20;99.90;;;;;;5053052;28;19931;-84
2021/12/11 09:43:05;;;;;;;77.53;28.38;;;-1.20;99.90;;;;;;5053783;28;20048;-84
2021/12/11 09:45:36;;;;;;;84.30;30.27;;;-1.10;99.90;;;;;;5036549;28;20044;-83
2021/12/11 09:48:10;;;;;;;84.70;30.83;;;-1.10;99.90;;;;;;5053776;28;20045;-84
2021/12/11 09:50:53;;;;;;;90.25;32.25;;;-1.00;99.90;;;;;;5053017;28;20428;-84
2021/12/11 09:53:25;;;;;;;87.97;32.20;;;-0.90;99.90;;;;;;5037211;28;20449;-84
2021/12/11 09:55:51;;;;;;;92.60;32.35;;;-0.90;99.90;;;;;;5052960;28;20052;-84
2021/12/11 09:58:22;;;;;;;89.25;32.80;;;-0.80;99.90;;;;;;5053874;28;20073;-83
2021/12/11 10:01:23;;;;;;;95.65;34.83;;;-0.70;99.90;;;;;;5052939;28;20053;-85
2021/12/11 10:03:56;;;;;;;97.72;34.40;;;-0.60;99.90;;;;;;5052658;28;20118;-83
2021/12/11 10:06:42;;;;;;;104.18;35.63;;;-0.50;99.90;;;;;;5052826;28;20488;-84
2021/12/11 10:09:19;;;;;;;145.75;53.08;;;-0.50;99.90;;;;;;5052818;28;20144;-83
2021/12/11 10:11:57;;;;;;;135.98;48.92;;;-0.50;99.90;;;;;;5053460;28;20547;-83
2021/12/11 10:14:33;;;;;;;142.75;51.33;;;-0.40;99.90;;;;;;5053585;28;20102;-85
2021/12/11 10:17:03;;;;;;;105.23;39.97;;;-0.40;99.90;;;;;;5053189;28;20064;-85
2021/12/11 10:19:30;;;;;;;98.65;36.90;;;-0.30;99.90;;;;;;5035850;28;20052;-84
2021/12/11 10:22:04;;;;;;;97.50;34.83;;;-0.20;99.90;;;;;;5052532;28;20049;-85
2021/12/11 10:24:32;;;;;;;92.80;34.70;;;-0.20;99.90;;;;;;5052699;28;20103;-85
2021/12/11 10:26:59;;;;;;;94.57;34.72;;;-0.20;99.90;;;;;;5035427;28;20045;-85
2021/12/11 10:29:25;;;;;;;;;;;-0.10;99.90;;;;;;5053063;28;20056;-83
2021/12/11 10:32:02;;;;;;;98.60;35.97;;;0.00;99.90;;;;;;5035570;28;19921;-83
2021/12/11 10:34:31;;;;;;;102.85;38.35;;;0.10;99.90;;;;;;5035706;28;20049;-82
2021/12/11 10:37:08;;;;;;;106.50;38.28;;;0.20;99.90;;;;;;5053106;28;20045;-84
2021/12/11 10:39:36;;;;;;;99.95;36.70;;;0.20;99.90;;;;;;5052401;28;20392;-82
2021/12/11 10:42:04;;;;;;;98.97;34.13;;;0.30;99.90;;;;;;5035609;28;20175;-82
2021/12/11 10:44:36;;;;;;;101.45;34.35;;;0.20;99.90;;;;;;5051888;28;20178;-82
2021/12/11 10:47:07;;;;;;;102.60;36.42;;;0.30;99.90;;;;;;5052323;28;20048;-81
2021/12/11 10:49:34;;;;;;;102.30;33.95;;;0.30;99.90;;;;;;5052532;28;20129;-82
2021/12/11 10:52:13;;;;;;;107.13;35.88;;;0.30;99.90;;;;;;5035380;28;20044;-80
2021/12/11 10:54:38;;;;;;;98.25;35.15;;;0.40;99.90;;;;;;5053169;28;20142;-80
2021/12/11 10:57:05;;;;;;;93.30;32.88;;;0.40;99.90;;;;;;5052071;28;20087;-82
2021/12/11 10:59:37;;;;;;;98.18;34.35;;;0.40;99.90;;;;;;5034880;28;20057;-81
2021/12/11 11:02:09;;;;;;;85.10;32.28;;;0.50;99.90;;;;;;5051656;28;20155;-80
2021/12/11 11:04:45;;;;;;;91.75;32.55;;;0.50;99.90;;;;;;5052008;28;20125;-80
2021/12/11 11:07:11;;;;;;;83.80;31.80;;;0.40;99.90;;;;;;5052379;28;20432;-78
2021/12/11 11:09:39;;;;;;;96.55;33.60;;;0.40;99.90;;;;;;5034917;28;20049;-79
2021/12/11 11:12:10;;;;;;;89.28;31.98;;;0.50;99.90;;;;;;5051086;28;20508;-80
2021/12/11 11:14:36;;;;;;;95.13;33.15;;;0.50;99.90;;;;;;5051599;28;20053;-81
2021/12/11 11:17:06;;;;;;;93.32;33.55;;;0.60;99.90;;;;;;5052550;28;20068;-85
2021/12/11 11:19:34;;;;;;;82.95;32.03;;;0.50;99.90;;;;;;5053194;28;20049;-82
2021/12/11 11:22:04;;;;;;;88.63;32.17;;;0.50;99.90;;;;;;5055422;28;20044;-83
2021/12/11 11:24:35;;;;;;;100.60;35.35;;;0.60;99.90;;;;;;5056868;28;20052;-78
2021/12/11 11:27:03;;;;;;;99.65;39.28;;;0.70;99.90;;;;;;5056754;28;20041;-82
2021/12/11 11:29:29;;;;;;;117.78;47.50;;;0.70;99.90;;;;;;5055450;28;20057;-76
2021/12/11 11:32:01;;;;;;;131.25;48.45;;;0.80;99.90;;;;;;5056661;28;20098;-78
2021/12/11 11:34:27;;;;;;;121.60;44.85;;;0.90;99.90;;;;;;5056635;28;20148;-79
2021/12/11 11:36:56;;;;;;;115.10;43.17;;;0.80;99.90;;;;;;5056405;28;20041;-77
2021/12/11 11:39:23;;;;;;;105.07;40.75;;;0.90;99.90;;;;;;5038975;28;20773;-78
2021/12/11 11:41:55;;;;;;;104.75;37.30;;;1.00;99.90;;;;;;5039103;28;20053;-76
2021/12/11 11:44:24;;;;;;;99.43;38.70;;;1.00;99.90;;;;;;5038439;28;20103;-76
2021/12/11 11:46:51;;;;;;;105.57;39.55;;;1.00;99.90;;;;;;5054943;28;20083;-77
2021/12/11 11:49:18;;;;;;;109.97;40.05;;;1.10;99.90;;;;;;5056255;28;20048;-75
2021/12/11 11:51:51;;;;;;;109.80;37.03;;;1.10;99.90;;;;;;5038471;28;20103;-76
2021/12/11 11:54:20;;;;;;;100.90;37.35;;;1.20;99.90;;;;;;5055120;28;20452;-80
2021/12/11 11:56:52;;;;;;;98.75;36.53;;;1.20;99.90;;;;;;5054885;28;20454;-78
2021/12/11 11:59:18;;;;;;;107.25;37.85;;;1.30;99.90;;;;;;5055981;28;20167;-76
2021/12/11 12:02:00;;;;;;;108.57;36.53;;;1.40;99.90;;;;;;5055674;28;20572;-75
2021/12/11 12:04:28;;;;;;;96.72;33.88;;;1.40;99.90;;;;;;5056469;28;20063;-76
2021/12/11 12:06:58;;;;;;;95.28;33.72;;;1.60;99.90;;;;;;5055756;28;20048;-75
2021/12/11 12:09:25;;;;;;;93.95;33.50;;;1.60;99.90;;;;;;5054861;28;20406;-75
2021/12/11 12:11:53;;;;;;;95.50;33.88;;;1.70;99.90;;;;;;5054916;28;20423;-77
2021/12/11 12:14:25;;;;;;;;;;;1.80;99.90;;;;;;5038605;28;20101;-76
2021/12/11 12:16:52;;;;;;;88.03;30.55;;;1.80;99.90;;;;;;5055960;28;19929;-77
2021/12/11 12:19:21;;;;;;;99.85;32.53;;;1.80;99.90;;;;;;5055567;28;20439;-76
2021/12/11 12:21:49;;;;;;;96.22;33.17;;;1.90;99.90;;;;;;5054464;28;20041;-78
2021/12/11 12:24:17;;;;;;;103.28;37.03;;;1.90;99.90;;;;;;5054333;28;20056;-81
2021/12/11 12:26:44;;;;;;;105.57;34.03;;;2.10;99.90;;;;;;5054172;28;20049;-76
2021/12/11 12:29:12;;;;;;;98.97;34.95;;;2.10;99.90;;;;;;5055465;28;20077;-80
2021/12/11 12:32:22;;;;;;;105.95;34.92;;;2.10;99.90;;;;;;5054943;28;20052;-79
2021/12/11 12:34:50;;;;;;;95.88;35.10;;;2.20;99.90;;;;;;5047250;28;20092;-78
2021/12/11 12:37:15;;;;;;;92.60;33.53;;;2.20;99.90;;;;;;5054124;28;20049;-79
2021/12/11 12:39:45;;;;;;;107.75;35.47;;;2.20;99.90;;;;;;5037595;28;20121;-78
2021/12/11 12:42:30;;;;;;;101.03;34.25;;;2.30;99.90;;;;;;5054993;28;20095;-82
2021/12/11 12:45:19;;;;;;;100.90;33.50;;;2.30;99.90;;;;;;5054407;28;20381;-77
2021/12/11 12:47:52;;;;;;;101.63;34.47;;;2.30;99.90;;;;;;5053990;28;20052;-77
2021/12/11 12:50:27;;;;;;;110.15;37.03;;;2.40;99.90;;;;;;5037104;28;20052;-78
2021/12/11 12:52:53;;;;;;;110.88;37.40;;;2.50;99.90;;;;;;5054549;28;20044;-78
2021/12/11 12:55:25;;;;;;;118.05;41.30;;;2.50;99.90;;;;;;5053536;28;20051;-78
2021/12/11 12:57:55;;;;;;;110.90;40.08;;;2.70;99.90;;;;;;5037138;28;20409;-79
2021/12/11 13:00:40;;;;;;;106.72;39.08;;;2.60;99.90;;;;;;5053274;28;20056;-77
2021/12/11 13:03:20;;;;;;;100.38;35.88;;;2.70;99.90;;;;;;5037665;28;20118;-77